sensor_id;sensor_type;location;lat;lon;timestamp;pressure;altitude;pressure_sealevel;temperature;humidity
43824;BME280;29470;53.550;9.926;2023-04-12T00:02:00;100613.28;;;9.16;72.50
43824;BME280;29470;53.550;9.926;2023-04-12T00:07:04;100603.78;;;9.64;71.17
43824;BME280;29470;53.550;9.926;2023-04-12T00:12:10;100597.69;;;9.26;73.07
43824;BME280;29470;53.550;9.926;2023-04-12T00:17:14;100593.19;;;9.23;72.09
43824;BME280;29470;53.550;9.926;2023-04-12T00:22:19;100577.03;;;9.26;72.19
43824;BME280;29470;53.550;9.926;2023-04-12T00:27:22;100561.09;;;9.32;71.80
43824;BME280;29470;53.550;9.926;2023-04-12T00:32:27;100559.88;;;9.14;71.73
43824;BME280;29470;53.550;9.926;2023-04-12T00:37:31;100561.13;;;9.20;71.16
43824;BME280;29470;53.550;9.926;2023-04-12T00:42:35;100548.56;;;9.12;71.60
43824;BME280;29470;53.550;9.926;2023-04-12T00:47:40;100557.66;;;8.95;71.87
43824;BME280;29470;53.550;9.926;2023-04-12T00:52:44;100537.56;;;9.15;70.84
43824;BME280;29470;53.550;9.926;2023-04-12T00:57:47;100528.13;;;9.16;69.54
43824;BME280;29470;53.550;9.926;2023-04-12T01:02:51;100524.06;;;9.31;69.66
43824;BME280;29470;53.550;9.926;2023-04-12T01:08:02;100512.53;;;9.26;69.42
43824;BME280;29470;53.550;9.926;2023-04-12T01:13:22;100502.78;;;9.10;69.74
43824;BME280;29470;53.550;9.926;2023-04-12T01:18:32;100503.91;;;9.13;69.08
43824;BME280;29470;53.550;9.926;2023-04-12T01:24:00;100489.47;;;8.92;69.40
43824;BME280;29470;53.550;9.926;2023-04-12T01:29:09;100489.91;;;8.86;69.10
43824;BME280;29470;53.550;9.926;2023-04-12T01:34:12;100479.94;;;8.91;69.03
43824;BME280;29470;53.550;9.926;2023-04-12T01:39:16;100482.19;;;8.86;69.00
43824;BME280;29470;53.550;9.926;2023-04-12T01:44:20;100474.03;;;8.80;69.60
43824;BME280;29470;53.550;9.926;2023-04-12T01:49:26;100466.53;;;8.83;68.57
43824;BME280;29470;53.550;9.926;2023-04-12T01:54:34;100455.81;;;8.90;68.51
43824;BME280;29470;53.550;9.926;2023-04-12T01:59:41;100450.25;;;8.36;69.88
43824;BME280;29470;53.550;9.926;2023-04-12T02:04:45;100442.19;;;8.44;70.26
43824;BME280;29470;53.550;9.926;2023-04-12T02:09:49;100433.88;;;8.36;70.92
43824;BME280;29470;53.550;9.926;2023-04-12T02:14:55;100425.50;;;8.50;70.07
43824;BME280;29470;53.550;9.926;2023-04-12T02:19:58;100415.84;;;8.24;70.56
43824;BME280;29470;53.550;9.926;2023-04-12T02:25:02;100409.56;;;8.32;70.63
43824;BME280;29470;53.550;9.926;2023-04-12T02:30:09;100401.94;;;8.46;69.67
43824;BME280;29470;53.550;9.926;2023-04-12T02:35:14;100395.09;;;8.22;70.55
43824;BME280;29470;53.550;9.926;2023-04-12T02:40:20;100380.00;;;8.27;69.91
43824;BME280;29470;53.550;9.926;2023-04-12T02:45:25;100359.16;;;8.24;68.81
43824;BME280;29470;53.550;9.926;2023-04-12T02:50:30;100337.44;;;8.08;70.56
43824;BME280;29470;53.550;9.926;2023-04-12T02:55:42;100329.13;;;8.24;70.05
43824;BME280;29470;53.550;9.926;2023-04-12T03:00:48;100324.66;;;8.22;69.27
43824;BME280;29470;53.550;9.926;2023-04-12T03:05:57;100314.75;;;8.40;68.53
43824;BME280;29470;53.550;9.926;2023-04-12T03:11:01;100299.53;;;8.55;68.45
43824;BME280;29470;53.550;9.926;2023-04-12T03:16:20;100290.22;;;8.57;68.41
43824;BME280;29470;53.550;9.926;2023-04-12T03:21:30;100272.66;;;8.39;68.68
43824;BME280;29470;53.550;9.926;2023-04-12T03:26:36;100266.34;;;8.48;67.80
43824;BME280;29470;53.550;9.926;2023-04-12T03:31:48;100252.94;;;8.52;66.80
43824;BME280;29470;53.550;9.926;2023-04-12T03:36:52;100247.63;;;8.62;66.88
43824;BME280;29470;53.550;9.926;2023-04-12T03:42:19;100247.56;;;8.74;66.31
43824;BME280;29470;53.550;9.926;2023-04-12T03:47:53;100243.44;;;8.27;67.85
43824;BME280;29470;53.550;9.926;2023-04-12T03:53:04;100230.41;;;8.49;67.26
43824;BME280;29470;53.550;9.926;2023-04-12T03:59:18;100213.75;;;8.32;67.35
43824;BME280;29470;53.550;9.926;2023-04-12T04:11:22;100171.53;;;8.30;68.08
43824;BME280;29470;53.550;9.926;2023-04-12T04:16:56;100168.56;;;8.37;67.49
43824;BME280;29470;53.550;9.926;2023-04-12T04:21:59;100151.16;;;8.47;66.56
43824;BME280;29470;53.550;9.926;2023-04-12T04:27:33;100148.47;;;8.45;67.27
43824;BME280;29470;53.550;9.926;2023-04-12T04:32:40;100139.03;;;8.58;65.99
43824;BME280;29470;53.550;9.926;2023-04-12T04:37:44;100133.66;;;8.54;66.02
43824;BME280;29470;53.550;9.926;2023-04-12T04:42:51;100134.16;;;8.49;65.63
43824;BME280;29470;53.550;9.926;2023-04-12T04:47:58;100116.41;;;8.53;66.31
43824;BME280;29470;53.550;9.926;2023-04-12T04:53:01;100100.97;;;8.67;65.46
43824;BME280;29470;53.550;9.926;2023-04-12T04:58:08;100102.44;;;8.50;65.62
43824;BME280;29470;53.550;9.926;2023-04-12T05:03:14;100098.50;;;8.43;65.46
43824;BME280;29470;53.550;9.926;2023-04-12T05:08:17;100093.63;;;8.60;65.37
43824;BME280;29470;53.550;9.926;2023-04-12T05:13:23;100089.78;;;8.41;65.68
43824;BME280;29470;53.550;9.926;2023-04-12T05:18:26;100089.97;;;8.56;64.94
43824;BME280;29470;53.550;9.926;2023-04-12T05:23:33;100092.38;;;8.80;64.89
43824;BME280;29470;53.550;9.926;2023-04-12T05:28:38;100076.22;;;8.82;64.27
43824;BME280;29470;53.550;9.926;2023-04-12T05:33:44;100059.44;;;9.16;62.28
43824;BME280;29470;53.550;9.926;2023-04-12T05:38:47;100055.88;;;8.74;62.90
43824;BME280;29470;53.550;9.926;2023-04-12T05:43:51;100051.63;;;9.56;60.67
43824;BME280;29470;53.550;9.926;2023-04-12T05:48:54;100053.16;;;9.39;60.72
43824;BME280;29470;53.550;9.926;2023-04-12T05:53:58;100048.38;;;9.46;59.52
43824;BME280;29470;53.550;9.926;2023-04-12T05:59:07;100034.28;;;9.54;60.75
43824;BME280;29470;53.550;9.926;2023-04-12T06:04:13;100023.31;;;9.86;58.50
43824;BME280;29470;53.550;9.926;2023-04-12T06:09:17;100019.56;;;10.25;57.25
43824;BME280;29470;53.550;9.926;2023-04-12T06:14:24;100003.59;;;11.90;53.36
43824;BME280;29470;53.550;9.926;2023-04-12T06:19:27;99996.00;;;14.15;47.46
43824;BME280;29470;53.550;9.926;2023-04-12T06:24:33;99984.72;;;14.99;44.32
43824;BME280;29470;53.550;9.926;2023-04-12T06:29:37;99962.88;;;17.26;39.77
43824;BME280;29470;53.550;9.926;2023-04-12T06:34:41;99966.69;;;18.70;37.30
43824;BME280;29470;53.550;9.926;2023-04-12T06:39:47;99958.38;;;20.69;34.40
43824;BME280;29470;53.550;9.926;2023-04-12T06:44:51;99941.50;;;20.55;33.95
43824;BME280;29470;53.550;9.926;2023-04-12T06:49:54;99934.56;;;21.96;32.02
43824;BME280;29470;53.550;9.926;2023-04-12T06:54:58;99936.16;;;22.83;30.38
43824;BME280;29470;53.550;9.926;2023-04-12T07:00:03;99925.09;;;25.05;28.17
43824;BME280;29470;53.550;9.926;2023-04-12T07:05:07;99926.84;;;23.60;28.86
43824;BME280;29470;53.550;9.926;2023-04-12T07:10:10;99905.53;;;20.51;32.73
43824;BME280;29470;53.550;9.926;2023-04-12T07:15:14;99913.59;;;19.16;34.55
43824;BME280;29470;53.550;9.926;2023-04-12T07:20:17;99915.22;;;17.34;37.39
43824;BME280;29470;53.550;9.926;2023-04-12T07:25:20;99905.28;;;16.64;39.18
43824;BME280;29470;53.550;9.926;2023-04-12T07:30:24;99891.84;;;15.73;40.53
43824;BME280;29470;53.550;9.926;2023-04-12T07:35:27;99898.09;;;15.28;42.19
43824;BME280;29470;53.550;9.926;2023-04-12T07:40:29;99886.50;;;15.20;42.63
43824;BME280;29470;53.550;9.926;2023-04-12T07:45:35;99875.97;;;14.69;43.24
43824;BME280;29470;53.550;9.926;2023-04-12T07:50:38;99875.09;;;14.48;43.99
43824;BME280;29470;53.550;9.926;2023-04-12T07:55:41;99868.78;;;14.20;44.75
43824;BME280;29470;53.550;9.926;2023-04-12T08:00:46;99858.91;;;14.11;44.65
43824;BME280;29470;53.550;9.926;2023-04-12T08:05:49;99837.72;;;14.68;44.18
43824;BME280;29470;53.550;9.926;2023-04-12T08:10:54;99831.69;;;14.47;44.22
43824;BME280;29470;53.550;9.926;2023-04-12T08:15:58;99823.56;;;14.62;43.54
43824;BME280;29470;53.550;9.926;2023-04-12T08:21:02;99811.94;;;14.52;44.00
43824;BME280;29470;53.550;9.926;2023-04-12T08:26:05;99799.91;;;14.55;43.89
43824;BME280;29470;53.550;9.926;2023-04-12T08:31:09;99787.81;;;14.33;44.59
43824;BME280;29470;53.550;9.926;2023-04-12T08:36:14;99778.28;;;14.34;44.71
43824;BME280;29470;53.550;9.926;2023-04-12T08:41:17;99770.25;;;14.27;45.02
43824;BME280;29470;53.550;9.926;2023-04-12T08:46:24;99759.38;;;14.38;44.25
43824;BME280;29470;53.550;9.926;2023-04-12T08:51:28;99740.34;;;13.72;44.84
43824;BME280;29470;53.550;9.926;2023-04-12T08:56:31;99726.53;;;13.73;45.06
43824;BME280;29470;53.550;9.926;2023-04-12T09:01:35;99729.94;;;14.16;44.31
43824;BME280;29470;53.550;9.926;2023-04-12T09:06:41;99729.66;;;14.55;44.00
43824;BME280;29470;53.550;9.926;2023-04-12T09:11:44;99718.91;;;14.93;43.23
43824;BME280;29470;53.550;9.926;2023-04-12T09:16:50;99696.81;;;15.87;41.85
43824;BME280;29470;53.550;9.926;2023-04-12T09:21:54;99694.38;;;15.93;41.87
43824;BME280;29470;53.550;9.926;2023-04-12T09:27:01;99678.66;;;15.35;42.43
43824;BME280;29470;53.550;9.926;2023-04-12T09:32:08;99661.09;;;15.57;42.59
43824;BME280;29470;53.550;9.926;2023-04-12T09:37:12;99654.22;;;15.59;42.57
43824;BME280;29470;53.550;9.926;2023-04-12T09:42:18;99639.59;;;15.64;42.77
43824;BME280;29470;53.550;9.926;2023-04-12T09:47:37;99629.06;;;16.19;42.09
43824;BME280;29470;53.550;9.926;2023-04-12T09:52:41;99634.00;;;15.52;43.40
43824;BME280;29470;53.550;9.926;2023-04-12T09:57:44;99626.31;;;15.84;42.32
43824;BME280;29470;53.550;9.926;2023-04-12T10:02:50;99621.94;;;15.83;42.02
43824;BME280;29470;53.550;9.926;2023-04-12T10:07:56;99613.03;;;15.76;42.23
43824;BME280;29470;53.550;9.926;2023-04-12T10:13:03;99607.41;;;15.91;42.51
43824;BME280;29470;53.550;9.926;2023-04-12T10:18:09;99597.13;;;16.60;41.86
43824;BME280;29470;53.550;9.926;2023-04-12T10:23:13;99603.53;;;16.39;41.76
43824;BME280;29470;53.550;9.926;2023-04-12T10:28:17;99587.56;;;16.60;42.36
43824;BME280;29470;53.550;9.926;2023-04-12T10:33:28;99590.72;;;16.82;42.37
43824;BME280;29470;53.550;9.926;2023-04-12T10:38:44;99587.16;;;16.78;42.93
43824;BME280;29470;53.550;9.926;2023-04-12T10:43:50;99584.19;;;16.98;43.62
43824;BME280;29470;53.550;9.926;2023-04-12T10:49:06;99578.88;;;15.97;47.12
43824;BME280;29470;53.550;9.926;2023-04-12T10:54:31;99572.81;;;15.97;47.50
43824;BME280;29470;53.550;9.926;2023-04-12T10:59:52;99581.78;;;15.20;50.01
43824;BME280;29470;53.550;9.926;2023-04-12T11:05:06;99580.53;;;15.94;50.00
43824;BME280;29470;53.550;9.926;2023-04-12T11:10:25;99577.34;;;15.44;49.83
43824;BME280;29470;53.550;9.926;2023-04-12T11:15:30;99580.88;;;15.46;51.00
43824;BME280;29470;53.550;9.926;2023-04-12T11:20:38;99589.28;;;14.83;51.81
43824;BME280;29470;53.550;9.926;2023-04-12T11:25:42;99594.59;;;14.62;54.12
43824;BME280;29470;53.550;9.926;2023-04-12T11:30:50;99592.63;;;14.80;56.43
43824;BME280;29470;53.550;9.926;2023-04-12T11:35:55;99591.31;;;14.41;57.70
43824;BME280;29470;53.550;9.926;2023-04-12T11:40:58;99584.69;;;14.51;58.12
43824;BME280;29470;53.550;9.926;2023-04-12T11:46:01;99585.59;;;14.03;60.73
43824;BME280;29470;53.550;9.926;2023-04-12T11:51:19;99577.56;;;14.21;60.74
43824;BME280;29470;53.550;9.926;2023-04-12T11:56:25;99577.88;;;14.05;61.72
43824;BME280;29470;53.550;9.926;2023-04-12T12:01:30;99569.28;;;14.57;61.73
43824;BME280;29470;53.550;9.926;2023-04-12T12:06:35;99563.09;;;14.54;62.10
43824;BME280;29470;53.550;9.926;2023-04-12T12:11:39;99556.22;;;15.64;59.16
43824;BME280;29470;53.550;9.926;2023-04-12T12:16:42;99545.03;;;15.12;58.94
43824;BME280;29470;53.550;9.926;2023-04-12T12:22:08;99541.47;;;15.08;60.20
43824;BME280;29470;53.550;9.926;2023-04-12T12:27:11;99541.59;;;14.84;60.94
43824;BME280;29470;53.550;9.926;2023-04-12T12:32:16;99536.50;;;14.63;61.32
43824;BME280;29470;53.550;9.926;2023-04-12T12:37:24;99525.88;;;14.81;61.45
43824;BME280;29470;53.550;9.926;2023-04-12T12:42:27;99532.28;;;15.20;60.54
43824;BME280;29470;53.550;9.926;2023-04-12T12:47:30;99518.69;;;15.01;61.72
43824;BME280;29470;53.550;9.926;2023-04-12T12:52:34;99508.09;;;14.17;64.03
43824;BME280;29470;53.550;9.926;2023-04-12T12:57:37;99489.84;;;14.41;64.86
43824;BME280;29470;53.550;9.926;2023-04-12T13:02:40;99488.44;;;14.77;64.61
43824;BME280;29470;53.550;9.926;2023-04-12T13:07:45;99479.44;;;14.95;64.56
43824;BME280;29470;53.550;9.926;2023-04-12T13:12:50;99484.59;;;15.22;64.08
43824;BME280;29470;53.550;9.926;2023-04-12T13:17:54;99465.34;;;15.78;61.34
43824;BME280;29470;53.550;9.926;2023-04-12T13:22:59;99457.66;;;14.91;63.89
43824;BME280;29470;53.550;9.926;2023-04-12T13:28:02;99460.09;;;15.15;63.39
43824;BME280;29470;53.550;9.926;2023-04-12T13:33:05;99451.88;;;14.74;64.54
43824;BME280;29470;53.550;9.926;2023-04-12T13:38:09;99447.59;;;14.75;65.73
43824;BME280;29470;53.550;9.926;2023-04-12T13:43:12;99444.44;;;14.85;65.44
43824;BME280;29470;53.550;9.926;2023-04-12T13:48:15;99436.28;;;14.74;66.09
43824;BME280;29470;53.550;9.926;2023-04-12T13:53:19;99438.19;;;15.09;65.88
43824;BME280;29470;53.550;9.926;2023-04-12T13:58:22;99438.56;;;14.65;67.02
43824;BME280;29470;53.550;9.926;2023-04-12T14:03:26;99431.72;;;15.25;65.37
43824;BME280;29470;53.550;9.926;2023-04-12T14:08:30;99419.69;;;15.60;63.67
43824;BME280;29470;53.550;9.926;2023-04-12T14:13:33;99418.75;;;15.57;64.00
43824;BME280;29470;53.550;9.926;2023-04-12T14:18:39;99418.72;;;15.25;65.28
43824;BME280;29470;53.550;9.926;2023-04-12T14:23:43;99420.75;;;15.35;65.14
43824;BME280;29470;53.550;9.926;2023-04-12T14:28:46;99406.97;;;15.39;65.25
43824;BME280;29470;53.550;9.926;2023-04-12T14:33:51;99406.22;;;15.43;64.01
43824;BME280;29470;53.550;9.926;2023-04-12T14:38:55;99401.50;;;15.30;66.20
43824;BME280;29470;53.550;9.926;2023-04-12T14:43:59;99394.88;;;15.43;65.54
43824;BME280;29470;53.550;9.926;2023-04-12T14:49:02;99386.44;;;15.84;65.00
43824;BME280;29470;53.550;9.926;2023-04-12T14:54:06;99376.34;;;15.96;64.61
43824;BME280;29470;53.550;9.926;2023-04-12T14:59:08;99371.50;;;15.44;66.19
43824;BME280;29470;53.550;9.926;2023-04-12T15:04:11;99374.13;;;15.46;66.23
43824;BME280;29470;53.550;9.926;2023-04-12T15:09:16;99378.75;;;15.87;65.44
43824;BME280;29470;53.550;9.926;2023-04-12T15:14:19;99368.66;;;16.01;64.16
43824;BME280;29470;53.550;9.926;2023-04-12T15:19:21;99369.81;;;15.79;64.84
43824;BME280;29470;53.550;9.926;2023-04-12T15:24:26;99368.97;;;15.81;64.58
43824;BME280;29470;53.550;9.926;2023-04-12T15:29:31;99356.31;;;15.94;63.71
43824;BME280;29470;53.550;9.926;2023-04-12T15:34:34;99356.41;;;15.32;66.22
43824;BME280;29470;53.550;9.926;2023-04-12T15:39:38;99351.44;;;15.42;65.90
43824;BME280;29470;53.550;9.926;2023-04-12T15:44:42;99356.16;;;14.93;66.84
43824;BME280;29470;53.550;9.926;2023-04-12T15:49:45;99348.16;;;14.86;67.81
43824;BME280;29470;53.550;9.926;2023-04-12T15:54:50;99348.81;;;14.79;68.52
43824;BME280;29470;53.550;9.926;2023-04-12T15:59:53;99349.41;;;15.31;66.91
43824;BME280;29470;53.550;9.926;2023-04-12T16:04:58;99343.19;;;15.26;66.02
43824;BME280;29470;53.550;9.926;2023-04-12T16:10:03;99338.63;;;15.17;66.77
43824;BME280;29470;53.550;9.926;2023-04-12T16:15:07;99341.66;;;15.02;67.42
43824;BME280;29470;53.550;9.926;2023-04-12T16:20:11;99335.13;;;14.85;67.31
43824;BME280;29470;53.550;9.926;2023-04-12T16:25:18;99338.28;;;14.75;68.11
43824;BME280;29470;53.550;9.926;2023-04-12T16:30:22;99340.72;;;14.99;66.65
43824;BME280;29470;53.550;9.926;2023-04-12T16:35:26;99332.19;;;15.37;64.44
43824;BME280;29470;53.550;9.926;2023-04-12T16:40:30;99337.44;;;15.06;67.54
43824;BME280;29470;53.550;9.926;2023-04-12T16:45:33;99336.19;;;15.24;66.22
43824;BME280;29470;53.550;9.926;2023-04-12T16:50:36;99324.53;;;15.43;65.05
43824;BME280;29470;53.550;9.926;2023-04-12T16:55:41;99314.06;;;14.77;66.59
43824;BME280;29470;53.550;9.926;2023-04-12T17:00:45;99323.41;;;15.01;66.68
43824;BME280;29470;53.550;9.926;2023-04-12T17:05:47;99319.59;;;14.61;67.55
43824;BME280;29470;53.550;9.926;2023-04-12T17:10:52;99311.72;;;14.86;67.42
43824;BME280;29470;53.550;9.926;2023-04-12T17:15:55;99301.19;;;14.82;67.43
43824;BME280;29470;53.550;9.926;2023-04-12T17:20:58;99296.72;;;14.78;68.26
43824;BME280;29470;53.550;9.926;2023-04-12T17:26:03;99289.19;;;14.58;69.15
43824;BME280;29470;53.550;9.926;2023-04-12T17:31:07;99279.19;;;14.72;68.61
43824;BME280;29470;53.550;9.926;2023-04-12T17:36:10;99281.22;;;14.82;68.33
43824;BME280;29470;53.550;9.926;2023-04-12T17:41:16;99277.75;;;14.82;67.98
43824;BME280;29470;53.550;9.926;2023-04-12T17:53:21;99290.97;;;14.90;67.74
43824;BME280;29470;53.550;9.926;2023-04-12T17:58:53;99288.28;;;14.86;67.90
43824;BME280;29470;53.550;9.926;2023-04-12T18:03:56;99292.28;;;14.46;68.37
43824;BME280;29470;53.550;9.926;2023-04-12T18:09:03;99289.00;;;15.13;67.28
43824;BME280;29470;53.550;9.926;2023-04-12T18:14:08;99289.88;;;15.45;65.74
43824;BME280;29470;53.550;9.926;2023-04-12T18:19:19;99276.00;;;14.81;67.61
43824;BME280;29470;53.550;9.926;2023-04-12T18:24:22;99282.50;;;14.97;68.13
43824;BME280;29470;53.550;9.926;2023-04-12T18:29:26;99292.53;;;14.54;69.66
43824;BME280;29470;53.550;9.926;2023-04-12T18:34:29;99305.09;;;14.69;68.04
43824;BME280;29470;53.550;9.926;2023-04-12T18:39:32;99334.09;;;14.80;70.37
43824;BME280;29470;53.550;9.926;2023-04-12T18:44:38;99332.44;;;14.83;71.14
43824;BME280;29470;53.550;9.926;2023-04-12T18:49:42;99337.31;;;15.01;70.12
43824;BME280;29470;53.550;9.926;2023-04-12T18:54:46;99343.88;;;14.88;72.00
43824;BME280;29470;53.550;9.926;2023-04-12T18:59:50;99340.16;;;14.80;72.40
43824;BME280;29470;53.550;9.926;2023-04-12T19:04:55;99343.72;;;14.55;72.44
43824;BME280;29470;53.550;9.926;2023-04-12T19:10:06;99358.75;;;14.36;72.11
43824;BME280;29470;53.550;9.926;2023-04-12T19:42:27;99412.47;;;12.65;72.57
43824;BME280;29470;53.550;9.926;2023-04-12T19:48:02;99416.09;;;11.86;74.24
43824;BME280;29470;53.550;9.926;2023-04-12T19:54:23;99419.53;;;11.85;73.41
43824;BME280;29470;53.550;9.926;2023-04-12T20:06:38;99403.34;;;12.10;69.75
43824;BME280;29470;53.550;9.926;2023-04-12T20:19:25;99381.69;;;11.88;71.61
43824;BME280;29470;53.550;9.926;2023-04-12T20:24:36;99388.94;;;11.76;71.40
43824;BME280;29470;53.550;9.926;2023-04-12T20:29:40;99384.88;;;11.83;69.66
43824;BME280;29470;53.550;9.926;2023-04-12T20:34:43;99375.56;;;11.86;70.64
43824;BME280;29470;53.550;9.926;2023-04-12T20:39:49;99392.88;;;12.07;71.16
43824;BME280;29470;53.550;9.926;2023-04-12T20:44:52;99399.25;;;12.15;70.18
43824;BME280;29470;53.550;9.926;2023-04-12T20:49:55;99385.59;;;11.78;70.51
43824;BME280;29470;53.550;9.926;2023-04-12T20:54:59;99380.78;;;11.67;72.67
43824;BME280;29470;53.550;9.926;2023-04-12T21:00:03;99378.75;;;11.40;73.44
43824;BME280;29470;53.550;9.926;2023-04-12T21:05:13;99380.22;;;11.95;70.65
43824;BME280;29470;53.550;9.926;2023-04-12T21:10:18;99382.97;;;11.57;71.92
43824;BME280;29470;53.550;9.926;2023-04-12T21:15:22;99394.56;;;11.26;73.38
43824;BME280;29470;53.550;9.926;2023-04-12T21:20:26;99406.00;;;11.12;74.58
43824;BME280;29470;53.550;9.926;2023-04-12T21:25:32;99411.84;;;11.08;74.42
43824;BME280;29470;53.550;9.926;2023-04-12T21:30:35;99424.88;;;10.91;73.33
43824;BME280;29470;53.550;9.926;2023-04-12T21:35:38;99432.28;;;10.83;74.21
43824;BME280;29470;53.550;9.926;2023-04-12T21:40:42;99436.41;;;10.98;73.15
43824;BME280;29470;53.550;9.926;2023-04-12T21:45:45;99450.25;;;10.62;74.36
43824;BME280;29470;53.550;9.926;2023-04-12T21:50:48;99463.06;;;11.15;73.68
43824;BME280;29470;53.550;9.926;2023-04-12T21:55:52;99478.72;;;11.18;72.26
43824;BME280;29470;53.550;9.926;2023-04-12T22:00:55;99465.53;;;11.31;72.72
43824;BME280;29470;53.550;9.926;2023-04-12T22:05:58;99462.84;;;11.10;72.65
43824;BME280;29470;53.550;9.926;2023-04-12T22:11:07;99460.28;;;11.49;71.09
43824;BME280;29470;53.550;9.926;2023-04-12T22:16:10;99469.47;;;11.23;73.08
43824;BME280;29470;53.550;9.926;2023-04-12T22:21:14;99469.53;;;10.87;73.23
43824;BME280;29470;53.550;9.926;2023-04-12T22:26:18;99463.09;;;11.54;72.49
43824;BME280;29470;53.550;9.926;2023-04-12T22:31:21;99469.16;;;11.74;70.34
43824;BME280;29470;53.550;9.926;2023-04-12T22:36:26;99460.84;;;12.01;69.83
43824;BME280;29470;53.550;9.926;2023-04-12T22:41:31;99462.19;;;11.93;69.30
43824;BME280;29470;53.550;9.926;2023-04-12T22:46:34;99469.97;;;11.93;68.95
43824;BME280;29470;53.550;9.926;2023-04-12T22:51:39;99459.81;;;11.98;66.89
43824;BME280;29470;53.550;9.926;2023-04-12T22:56:44;99457.84;;;11.72;67.13
43824;BME280;29470;53.550;9.926;2023-04-12T23:01:47;99462.56;;;11.61;67.17
43824;BME280;29470;53.550;9.926;2023-04-12T23:06:52;99449.19;;;11.52;67.55
43824;BME280;29470;53.550;9.926;2023-04-12T23:11:57;99443.53;;;11.61;67.68
43824;BME280;29470;53.550;9.926;2023-04-12T23:17:00;99442.03;;;11.27;69.57
43824;BME280;29470;53.550;9.926;2023-04-12T23:22:03;99440.47;;;11.30;68.73
43824;BME280;29470;53.550;9.926;2023-04-12T23:27:07;99459.13;;;11.23;68.60
43824;BME280;29470;53.550;9.926;2023-04-12T23:32:10;99458.72;;;11.33;68.24
43824;BME280;29470;53.550;9.926;2023-04-12T23:37:14;99460.16;;;11.27;68.14
43824;BME280;29470;53.550;9.926;2023-04-12T23:42:18;99467.13;;;11.28;67.21
43824;BME280;29470;53.550;9.926;2023-04-12T23:47:22;99465.13;;;11.42;66.55
43824;BME280;29470;53.550;9.926;2023-04-12T23:52:25;99466.34;;;11.30;68.24
43824;BME280;29470;53.550;9.926;2023-04-12T23:57:30;99465.50;;;11.12;69.05
